createdAt,value
2019-01-15T00:00:14.656Z,12.70
2019-01-15T00:01:14.625Z,13.80
2019-01-15T00:02:14.601Z,15.90
2019-01-15T00:03:14.607Z,19.50
2019-01-15T00:04:14.561Z,14.20
2019-01-15T00:05:14.542Z,14.00
2019-01-15T00:06:14.524Z,15.90
2019-01-15T00:07:14.491Z,15.50
2019-01-15T00:08:14.487Z,13.80
2019-01-15T00:09:14.450Z,11.70
2019-01-15T00:10:14.430Z,15.80
2019-01-15T00:11:14.404Z,15.70
2019-01-15T00:12:15.991Z,16.60
2019-01-15T00:13:14.376Z,17.00
2019-01-15T00:14:14.335Z,14.50
2019-01-15T00:15:14.328Z,16.00
2019-01-15T00:16:14.286Z,14.20
2019-01-15T00:17:14.284Z,17.40
2019-01-15T00:18:14.246Z,17.80
2019-01-15T00:19:14.223Z,16.00
2019-01-15T00:20:14.227Z,15.50
2019-01-15T00:21:14.175Z,15.50
2019-01-15T00:22:14.153Z,15.60
2019-01-15T00:23:14.131Z,16.20
2019-01-15T00:24:14.108Z,18.80
2019-01-15T00:25:14.091Z,17.20
2019-01-15T00:26:14.079Z,16.20
2019-01-15T00:27:14.037Z,17.30
2019-01-15T00:28:14.032Z,14.70
2019-01-15T00:29:13.991Z,19.40
2019-01-15T00:30:13.974Z,17.60
2019-01-15T00:31:13.950Z,17.00
2019-01-15T00:32:13.924Z,18.20
2019-01-15T00:33:13.929Z,18.70
2019-01-15T00:34:13.878Z,20.10
2019-01-15T00:35:13.863Z,18.20
2019-01-15T00:36:13.832Z,20.20
2019-01-15T00:37:13.811Z,17.30
2019-01-15T00:38:13.790Z,17.40
2019-01-15T00:39:13.781Z,19.80
2019-01-15T00:40:13.766Z,19.20
2019-01-15T00:41:13.721Z,17.70
2019-01-15T00:42:15.459Z,18.10
2019-01-15T00:43:13.671Z,18.20
2019-01-15T00:44:13.650Z,19.00
2019-01-15T00:45:13.633Z,22.30
2019-01-15T00:46:13.635Z,19.90
2019-01-15T00:47:13.582Z,18.90
2019-01-15T00:48:13.561Z,21.40
2019-01-15T00:49:13.549Z,20.20
2019-01-15T00:50:13.514Z,17.40
2019-01-15T00:51:13.499Z,19.80
2019-01-15T00:52:13.489Z,21.60
2019-01-15T00:53:13.453Z,21.60
2019-01-15T00:54:13.421Z,22.00
2019-01-15T00:55:13.400Z,21.20
2019-01-15T00:56:13.387Z,19.30
2019-01-15T00:57:13.356Z,22.20
2019-01-15T00:58:13.329Z,19.90
2019-01-15T00:59:13.309Z,19.60
2019-01-15T01:00:13.301Z,21.10
2019-01-15T01:01:13.276Z,22.40
2019-01-15T01:02:13.264Z,21.30
2019-01-15T01:03:13.226Z,23.60
2019-01-15T01:04:13.192Z,24.10
2019-01-15T01:05:13.175Z,21.60
2019-01-15T01:06:13.146Z,21.70
2019-01-15T01:07:13.123Z,21.90
2019-01-15T01:08:13.113Z,23.90
2019-01-15T01:09:13.074Z,22.00
2019-01-15T01:10:13.053Z,22.80
2019-01-15T01:11:13.034Z,19.80
2019-01-15T01:12:13.003Z,20.50
2019-01-15T01:13:12.984Z,23.10
2019-01-15T01:14:12.976Z,20.80
2019-01-15T01:15:12.936Z,21.50
2019-01-15T01:16:12.909Z,23.80
2019-01-15T01:17:12.888Z,25.60
2019-01-15T01:18:12.889Z,20.60
2019-01-15T01:19:12.854Z,22.10
2019-01-15T01:20:12.821Z,21.90
2019-01-15T01:21:12.798Z,21.30
2019-01-15T01:22:12.775Z,20.60
2019-01-15T01:23:12.753Z,22.80
2019-01-15T01:24:12.751Z,19.10
2019-01-15T01:25:12.715Z,21.90
2019-01-15T01:26:12.683Z,20.50
2019-01-15T01:27:12.659Z,19.50
2019-01-15T01:28:12.636Z,21.00
2019-01-15T01:29:12.630Z,20.30
2019-01-15T01:30:12.585Z,21.70
2019-01-15T01:31:12.586Z,18.70
2019-01-15T01:32:12.538Z,18.90
2019-01-15T01:33:12.514Z,16.60
2019-01-15T01:34:13.995Z,18.30
2019-01-15T01:35:12.492Z,16.70
2019-01-15T01:36:12.470Z,19.10
2019-01-15T01:37:12.430Z,19.40
2019-01-15T01:38:12.401Z,17.50
2019-01-15T01:39:12.380Z,20.00
2019-01-15T01:40:12.355Z,21.10
2019-01-15T01:41:12.346Z,19.40
2019-01-15T01:42:12.328Z,18.60
2019-01-15T01:43:12.290Z,18.50
2019-01-15T01:44:12.263Z,21.30
2019-01-15T01:45:12.239Z,22.80
2019-01-15T01:46:12.216Z,22.70
2019-01-15T01:47:12.195Z,20.60
2019-01-15T01:48:12.188Z,18.60
2019-01-15T01:49:12.147Z,19.60
2019-01-15T01:50:12.118Z,19.50
2019-01-15T01:51:12.100Z,15.80
2019-01-15T01:52:12.071Z,20.80
2019-01-15T01:53:12.068Z,18.40
2019-01-15T01:54:12.030Z,19.10
2019-01-15T01:55:12.006Z,16.70
2019-01-15T01:56:11.980Z,20.20
2019-01-15T01:57:11.960Z,20.10
2019-01-15T01:58:11.953Z,20.30
2019-01-15T01:59:11.946Z,19.30
2019-01-15T02:00:11.890Z,20.00
2019-01-15T02:01:11.865Z,19.20
2019-01-15T02:02:12.539Z,21.00
2019-01-15T02:03:11.821Z,17.60
2019-01-15T02:04:11.795Z,17.50
2019-01-15T02:05:11.787Z,16.70
2019-01-15T02:06:11.751Z,19.40
2019-01-15T02:07:11.730Z,18.20
2019-01-15T02:08:11.701Z,19.20
2019-01-15T02:09:11.675Z,20.10
2019-01-15T02:10:11.672Z,20.10
2019-01-15T02:11:11.637Z,19.70
2019-01-15T02:12:11.632Z,19.20
2019-01-15T02:13:11.598Z,19.10
2019-01-15T02:14:12.499Z,21.00
2019-01-15T02:15:11.550Z,20.10
2019-01-15T02:16:11.535Z,21.50
2019-01-15T02:17:11.495Z,20.40
2019-01-15T02:18:11.469Z,18.20
2019-01-15T02:19:11.455Z,21.20
2019-01-15T02:20:11.426Z,20.60
2019-01-15T02:21:11.400Z,20.50
2019-01-15T02:22:11.397Z,19.20
2019-01-15T02:23:11.356Z,20.70
2019-01-15T02:24:11.332Z,18.40
2019-01-15T02:25:11.311Z,21.50
2019-01-15T02:26:11.286Z,21.70
2019-01-15T02:27:11.269Z,21.30
2019-01-15T02:28:11.254Z,17.90
2019-01-15T02:29:11.215Z,21.80
2019-01-15T02:30:11.196Z,18.80
2019-01-15T02:31:11.172Z,20.30
2019-01-15T02:32:11.144Z,18.70
2019-01-15T02:33:11.143Z,20.00
2019-01-15T02:34:11.102Z,24.80
2019-01-15T02:35:11.094Z,23.90
2019-01-15T02:36:11.076Z,22.40
2019-01-15T02:37:11.036Z,21.30
2019-01-15T02:38:11.011Z,20.50
2019-01-15T02:39:10.984Z,21.60
2019-01-15T02:40:10.977Z,21.70
2019-01-15T02:41:10.939Z,18.60
2019-01-15T02:42:10.917Z,20.00
2019-01-15T02:43:10.893Z,23.40
2019-01-15T02:44:10.872Z,22.30
2019-01-15T02:45:10.869Z,19.20
2019-01-15T02:46:10.825Z,21.90
2019-01-15T02:47:10.805Z,21.30
2019-01-15T02:48:10.783Z,23.00
2019-01-15T02:49:10.760Z,22.90
2019-01-15T02:50:10.762Z,23.30
2019-01-15T02:51:10.716Z,20.30
2019-01-15T02:52:10.690Z,21.90
2019-01-15T02:53:10.671Z,23.20
2019-01-15T02:54:10.648Z,20.90
2019-01-15T02:55:10.625Z,21.40
2019-01-15T02:56:10.617Z,19.40
2019-01-15T02:57:10.574Z,21.30
2019-01-15T02:58:10.555Z,20.20
2019-01-15T02:59:10.533Z,22.40
2019-01-15T03:00:11.032Z,21.50
2019-01-15T03:01:10.503Z,20.00
2019-01-15T03:02:10.463Z,20.70
2019-01-15T03:03:10.454Z,20.30
2019-01-15T03:04:10.419Z,21.00
2019-01-15T03:05:10.393Z,19.30
2019-01-15T03:06:10.371Z,21.20
2019-01-15T03:07:10.367Z,19.70
2019-01-15T03:08:10.329Z,21.30
2019-01-15T03:09:10.303Z,20.70
2019-01-15T03:10:10.291Z,21.90
2019-01-15T03:11:10.277Z,18.00
2019-01-15T03:12:10.234Z,19.70
2019-01-15T03:13:10.212Z,19.50
2019-01-15T03:14:10.190Z,19.40
2019-01-15T03:15:10.163Z,18.70
2019-01-15T03:16:10.143Z,18.40
2019-01-15T03:17:10.139Z,18.30
2019-01-15T03:18:10.100Z,18.00
2019-01-15T03:19:10.073Z,21.40
2019-01-15T03:20:10.068Z,20.80
2019-01-15T03:21:10.031Z,19.50
2019-01-15T03:22:10.003Z,17.70
2019-01-15T03:23:10.018Z,18.60
2019-01-15T03:24:09.966Z,20.40
2019-01-15T03:25:10.506Z,17.80
2019-01-15T03:26:09.914Z,21.80
2019-01-15T03:27:09.894Z,19.30
2019-01-15T03:28:09.874Z,19.30
2019-01-15T03:29:09.870Z,18.50
2019-01-15T03:30:09.826Z,19.40
2019-01-15T03:31:09.811Z,16.60
2019-01-15T03:32:09.783Z,19.90
2019-01-15T03:33:09.758Z,16.90
2019-01-15T03:34:09.756Z,19.30
2019-01-15T03:35:09.717Z,17.40
2019-01-15T03:36:09.688Z,17.50
2019-01-15T03:37:09.666Z,21.90
2019-01-15T03:38:09.648Z,17.80
2019-01-15T03:39:09.627Z,19.10
2019-01-15T03:40:09.620Z,17.20
2019-01-15T03:41:09.579Z,18.00
2019-01-15T03:42:09.556Z,15.80
2019-01-15T03:43:09.549Z,16.60
2019-01-15T03:44:09.513Z,17.40
2019-01-15T03:45:09.485Z,18.40
2019-01-15T03:46:09.509Z,21.20
2019-01-15T03:47:09.448Z,17.60
2019-01-15T03:48:09.421Z,16.70
2019-01-15T03:49:09.396Z,20.40
2019-01-15T03:50:09.375Z,18.40
2019-01-15T03:51:09.349Z,17.40
2019-01-15T03:52:09.351Z,17.40
2019-01-15T03:53:09.306Z,17.80
2019-01-15T03:54:09.284Z,18.40
2019-01-15T03:55:09.265Z,20.00
2019-01-15T03:56:09.233Z,19.40
2019-01-15T03:57:09.235Z,17.00
2019-01-15T03:58:09.191Z,18.10
2019-01-15T03:59:09.173Z,18.60
2019-01-15T04:00:09.146Z,19.70
2019-01-15T04:01:09.122Z,19.80
2019-01-15T04:02:09.103Z,19.40
2019-01-15T04:03:09.098Z,19.80
2019-01-15T04:04:09.054Z,19.50
2019-01-15T04:05:09.036Z,17.80
2019-01-15T04:06:09.014Z,18.70
2019-01-15T04:07:08.990Z,20.30
2019-01-15T04:08:08.963Z,19.20
2019-01-15T04:09:08.961Z,21.50
2019-01-15T04:10:08.928Z,17.30
2019-01-15T04:11:08.898Z,18.90
2019-01-15T04:12:08.872Z,22.00
2019-01-15T04:13:11.408Z,19.30
2019-01-15T04:14:08.839Z,21.50
2019-01-15T04:15:08.821Z,20.00
2019-01-15T04:16:08.783Z,21.50
2019-01-15T04:17:08.772Z,21.00
2019-01-15T04:18:08.738Z,22.30
2019-01-15T04:19:08.712Z,20.00
2019-01-15T04:20:08.689Z,20.70
2019-01-15T04:21:08.684Z,23.60
2019-01-15T04:22:08.644Z,20.90
2019-01-15T04:23:08.637Z,23.00
2019-01-15T04:24:08.615Z,24.60
2019-01-15T04:25:08.576Z,21.40
2019-01-15T04:26:08.552Z,26.00
2019-01-15T04:27:08.532Z,23.80
2019-01-15T04:28:08.529Z,24.10
2019-01-15T04:29:08.485Z,24.80
2019-01-15T04:30:08.469Z,22.70
2019-01-15T04:31:08.441Z,22.60
2019-01-15T04:32:08.413Z,23.80
2019-01-15T04:33:08.415Z,23.50
2019-01-15T04:34:08.370Z,22.50
2019-01-15T04:35:08.387Z,22.80
2019-01-15T04:36:08.327Z,24.30
2019-01-15T04:37:08.316Z,22.50
2019-01-15T04:38:08.285Z,24.30
2019-01-15T04:39:08.260Z,22.80
2019-01-15T04:40:08.233Z,23.30
2019-01-15T04:41:08.229Z,24.90
2019-01-15T04:42:08.199Z,25.90
2019-01-15T04:43:08.165Z,25.30
2019-01-15T04:44:08.147Z,24.80
2019-01-15T04:45:08.122Z,26.70
2019-01-15T04:46:08.113Z,23.90
2019-01-15T04:47:08.086Z,25.40
2019-01-15T04:48:08.067Z,25.00
2019-01-15T04:49:08.030Z,28.60
2019-01-15T04:50:08.010Z,24.10
2019-01-15T04:51:07.985Z,26.40
2019-01-15T04:52:07.963Z,24.30
2019-01-15T04:53:07.938Z,25.30
2019-01-15T04:54:07.934Z,26.60
2019-01-15T04:55:07.896Z,25.50
2019-01-15T04:56:07.875Z,26.70
2019-01-15T04:57:07.859Z,26.50
2019-01-15T04:58:07.823Z,27.60
2019-01-15T04:59:07.803Z,28.80
2019-01-15T05:00:07.793Z,26.00
2019-01-15T05:01:07.753Z,31.00
2019-01-15T05:02:07.732Z,28.30
2019-01-15T05:03:07.734Z,28.40
2019-01-15T05:04:07.683Z,28.20
2019-01-15T05:05:07.664Z,28.60
2019-01-15T05:06:08.524Z,29.90
2019-01-15T05:07:07.619Z,30.40
2019-01-15T05:08:07.591Z,31.90
2019-01-15T05:09:07.587Z,31.50
2019-01-15T05:10:07.548Z,32.60
2019-01-15T05:11:07.538Z,30.30
2019-01-15T05:12:07.505Z,32.80
2019-01-15T05:13:07.476Z,30.40
2019-01-15T05:14:07.454Z,32.60
2019-01-15T05:15:07.431Z,31.40
2019-01-15T05:16:07.426Z,29.70
2019-01-15T05:17:07.390Z,31.30
2019-01-15T05:18:07.366Z,34.30
2019-01-15T05:19:07.339Z,33.80
2019-01-15T05:20:07.321Z,36.50
2019-01-15T05:21:07.309Z,31.80
2019-01-15T05:22:07.302Z,37.80
2019-01-15T05:23:07.252Z,35.80
2019-01-15T05:24:07.223Z,36.30
2019-01-15T05:25:07.213Z,35.70
2019-01-15T05:26:07.191Z,35.20
2019-01-15T05:27:07.181Z,35.80
2019-01-15T05:28:07.144Z,38.30
2019-01-15T05:29:07.114Z,34.70
2019-01-15T05:30:07.087Z,35.40
2019-01-15T05:31:07.068Z,38.50
2019-01-15T05:32:07.045Z,35.40
2019-01-15T05:33:07.047Z,39.80
2019-01-15T05:34:07.518Z,37.10
2019-01-15T05:35:06.977Z,35.90
2019-01-15T05:36:06.959Z,34.80
2019-01-15T05:37:06.944Z,38.80
2019-01-15T05:38:06.915Z,34.50
2019-01-15T05:39:06.883Z,35.90
2019-01-15T05:40:06.881Z,32.30
2019-01-15T05:41:06.837Z,32.60
2019-01-15T05:42:06.813Z,34.50
2019-01-15T05:43:06.797Z,31.20
2019-01-15T05:44:06.766Z,30.60
2019-01-15T05:45:06.759Z,31.70
2019-01-15T05:46:07.516Z,31.60
2019-01-15T05:47:06.699Z,28.90
2019-01-15T05:48:06.686Z,31.90
2019-01-15T05:49:06.655Z,32.70
2019-01-15T05:50:06.631Z,28.50
2019-01-15T05:51:06.629Z,31.20
2019-01-15T05:52:06.586Z,30.70
2019-01-15T05:53:06.570Z,31.10
2019-01-15T05:54:06.536Z,30.40
2019-01-15T05:55:06.517Z,32.10
2019-01-15T05:56:06.502Z,29.60
2019-01-15T05:57:06.489Z,29.50
2019-01-15T05:58:06.447Z,32.00
2019-01-15T05:59:06.421Z,30.60
2019-01-15T06:00:06.398Z,29.60
2019-01-15T06:01:06.377Z,32.70
2019-01-15T06:02:06.376Z,30.10
2019-01-15T06:03:06.366Z,27.70
2019-01-15T06:04:06.308Z,30.00
2019-01-15T06:05:06.301Z,28.70
2019-01-15T06:06:06.263Z,30.00
2019-01-15T06:07:06.242Z,30.00
2019-01-15T06:08:06.218Z,31.20
2019-01-15T06:09:06.214Z,28.50
2019-01-15T06:10:06.170Z,29.50
2019-01-15T06:11:06.156Z,28.20
2019-01-15T06:12:06.127Z,28.20
2019-01-15T06:13:06.104Z,30.20
2019-01-15T06:14:06.103Z,28.60
2019-01-15T06:15:06.060Z,28.10
2019-01-15T06:16:06.032Z,29.00
2019-01-15T06:17:06.015Z,27.20
2019-01-15T06:18:05.989Z,26.20
2019-01-15T06:19:05.968Z,27.40
2019-01-15T06:20:05.963Z,26.70
2019-01-15T06:21:05.941Z,27.80
2019-01-15T06:22:05.902Z,28.20
2019-01-15T06:23:05.877Z,27.70
2019-01-15T06:24:05.851Z,26.90
2019-01-15T06:25:05.854Z,26.30
2019-01-15T06:26:05.819Z,29.40
2019-01-15T06:27:05.805Z,26.80
2019-01-15T06:28:05.768Z,27.20
2019-01-15T06:29:05.741Z,28.30
2019-01-15T06:30:05.716Z,25.90
2019-01-15T06:31:05.698Z,26.60
2019-01-15T06:32:05.686Z,26.80
2019-01-15T06:33:05.669Z,27.40
2019-01-15T06:34:05.626Z,27.80
2019-01-15T06:35:05.609Z,26.70
2019-01-15T06:36:05.582Z,28.10
2019-01-15T06:37:05.557Z,27.50
2019-01-15T06:38:05.554Z,25.50
2019-01-15T06:39:05.514Z,26.40
2019-01-15T06:40:05.489Z,27.10
2019-01-15T06:41:05.476Z,25.50
2019-01-15T06:42:05.454Z,26.60
2019-01-15T06:43:05.446Z,25.10
2019-01-15T06:44:05.422Z,25.20
2019-01-15T06:45:05.389Z,22.70
2019-01-15T06:46:05.358Z,26.60
2019-01-15T06:47:05.340Z,24.30
2019-01-15T06:48:05.311Z,25.10
2019-01-15T06:49:05.306Z,25.20
2019-01-15T06:50:05.287Z,26.00
2019-01-15T06:51:05.245Z,24.10
2019-01-15T06:52:05.221Z,28.20
2019-01-15T06:53:05.197Z,23.70
2019-01-15T06:54:05.178Z,25.60
2019-01-15T06:55:05.173Z,26.40
2019-01-15T06:56:05.129Z,25.50
2019-01-15T06:57:05.104Z,26.00
2019-01-15T06:58:05.094Z,25.40
2019-01-15T06:59:05.059Z,27.30
2019-01-15T07:00:05.062Z,25.60
2019-01-15T07:01:05.027Z,24.70
2019-01-15T07:02:04.992Z,26.30
2019-01-15T07:03:04.998Z,29.50
2019-01-15T07:04:04.949Z,30.40
2019-01-15T07:05:04.938Z,24.90
2019-01-15T07:06:04.909Z,24.70
2019-01-15T07:07:04.894Z,25.80
2019-01-15T07:08:04.863Z,27.60
2019-01-15T07:09:04.855Z,28.20
2019-01-15T07:10:04.813Z,27.20
2019-01-15T07:11:04.791Z,26.50
2019-01-15T07:12:04.810Z,28.30
2019-01-15T07:13:04.748Z,27.70
2019-01-15T07:14:04.724Z,26.60
2019-01-15T07:15:04.714Z,26.40
2019-01-15T07:16:04.681Z,27.00
2019-01-15T07:17:04.660Z,26.20
2019-01-15T07:18:04.638Z,25.70
2019-01-15T07:19:04.633Z,27.40
2019-01-15T07:20:04.600Z,25.80
2019-01-15T07:21:04.571Z,28.10
2019-01-15T07:22:04.551Z,27.50
2019-01-15T07:23:04.534Z,25.90
2019-01-15T07:24:04.495Z,25.30
2019-01-15T07:25:04.494Z,25.40
2019-01-15T07:26:04.458Z,26.40
2019-01-15T07:27:04.435Z,24.20
2019-01-15T07:28:04.427Z,24.80
2019-01-15T07:29:04.397Z,28.00
2019-01-15T07:30:04.363Z,26.00
2019-01-15T07:31:04.345Z,24.10
2019-01-15T07:32:04.326Z,25.90
2019-01-15T07:33:04.323Z,27.00
2019-01-15T07:34:04.280Z,25.40
2019-01-15T07:35:04.257Z,26.00
2019-01-15T07:36:04.226Z,26.30
2019-01-15T07:37:04.257Z,24.40
2019-01-15T07:38:04.200Z,28.30
2019-01-15T07:39:04.182Z,29.20
2019-01-15T07:40:04.150Z,26.50
2019-01-15T07:41:04.123Z,28.00
2019-01-15T07:42:04.099Z,29.40
2019-01-15T07:43:04.132Z,25.90
2019-01-15T07:44:04.438Z,29.30
2019-01-15T07:45:04.051Z,28.30
2019-01-15T07:46:04.029Z,29.30
2019-01-15T07:47:03.983Z,27.10
2019-01-15T07:48:03.982Z,26.70
2019-01-15T07:49:03.963Z,29.10
2019-01-15T07:50:03.956Z,29.80
2019-01-15T07:51:03.897Z,32.00
2019-01-15T07:52:03.883Z,33.90
2019-01-15T07:53:03.867Z,30.80
2019-01-15T07:54:03.834Z,32.50
2019-01-15T07:55:03.883Z,32.00
2019-01-15T07:56:03.837Z,30.40
2019-01-15T07:57:03.782Z,30.10
2019-01-15T07:58:03.744Z,32.10
2019-01-15T07:59:03.716Z,32.60
2019-01-15T08:00:03.696Z,30.80
2019-01-15T08:01:03.687Z,36.00
2019-01-15T08:02:03.697Z,31.70
2019-01-15T08:03:03.636Z,32.90
2019-01-15T08:04:03.620Z,39.80
2019-01-15T08:05:03.593Z,33.80
2019-01-15T08:06:03.571Z,34.80
2019-01-15T08:07:03.545Z,36.80
2019-01-15T08:08:03.546Z,33.10
2019-01-15T08:09:03.508Z,33.80
2019-01-15T08:10:03.487Z,35.30
2019-01-15T08:11:03.461Z,38.00
2019-01-15T08:12:03.436Z,34.60
2019-01-15T08:13:03.486Z,36.10
2019-01-15T08:14:03.392Z,35.50
2019-01-15T08:15:03.367Z,37.50
2019-01-15T08:16:03.351Z,36.00
2019-01-15T08:17:03.330Z,34.80
2019-01-15T08:18:03.320Z,35.00
2019-01-15T08:19:03.296Z,36.40
2019-01-15T08:20:03.269Z,33.20
2019-01-15T08:21:03.249Z,39.20
2019-01-15T08:22:03.217Z,33.80
2019-01-15T08:23:03.217Z,35.00
2019-01-15T08:24:03.174Z,33.50
2019-01-15T08:25:03.156Z,31.90
2019-01-15T08:26:03.153Z,33.90
2019-01-15T08:27:03.110Z,33.50
2019-01-15T08:28:03.087Z,34.60
2019-01-15T08:29:03.060Z,33.10
2019-01-15T08:30:03.064Z,35.60
2019-01-15T08:31:03.024Z,34.60
2019-01-15T08:32:02.994Z,32.40
2019-01-15T08:33:02.980Z,36.10
2019-01-15T08:34:02.956Z,35.30
2019-01-15T08:35:02.940Z,38.80
2019-01-15T08:36:02.928Z,33.80
2019-01-15T08:37:02.894Z,34.20
2019-01-15T08:38:02.862Z,36.50
2019-01-15T08:39:02.843Z,35.20
2019-01-15T08:40:02.825Z,35.80
2019-01-15T08:41:02.822Z,37.20
2019-01-15T08:42:02.779Z,32.60
2019-01-15T08:43:02.774Z,36.90
2019-01-15T08:44:02.740Z,37.10
2019-01-15T08:45:02.717Z,33.80
2019-01-15T08:46:02.694Z,34.70
2019-01-15T08:47:02.685Z,35.70
2019-01-15T08:48:02.670Z,36.10
2019-01-15T08:49:02.627Z,38.00
2019-01-15T08:50:02.608Z,37.90
2019-01-15T08:51:02.598Z,35.00
2019-01-15T08:52:02.564Z,36.30
2019-01-15T08:53:02.544Z,38.00
2019-01-15T08:54:02.543Z,35.40
2019-01-15T08:55:02.514Z,38.70
2019-01-15T08:56:02.484Z,35.80
2019-01-15T08:57:02.456Z,37.80
2019-01-15T08:58:02.439Z,35.10
2019-01-15T08:59:02.452Z,34.70
2019-01-15T09:00:02.400Z,38.50
2019-01-15T09:01:02.366Z,36.70
2019-01-15T09:02:02.352Z,36.80
2019-01-15T09:03:02.336Z,35.30
2019-01-15T09:04:02.306Z,36.10
2019-01-15T09:05:02.302Z,37.00
2019-01-15T09:06:02.259Z,36.10
2019-01-15T09:07:02.242Z,34.10
2019-01-15T09:08:02.221Z,35.60
2019-01-15T09:09:02.200Z,32.50
2019-01-15T09:10:02.173Z,33.00
2019-01-15T09:11:02.171Z,34.90
2019-01-15T09:12:02.139Z,34.40
2019-01-15T09:13:02.111Z,33.10
2019-01-15T09:14:02.092Z,35.00
2019-01-15T09:15:02.072Z,31.30
2019-01-15T09:16:02.061Z,34.80
2019-01-15T09:17:02.028Z,32.80
2019-01-15T09:18:02.002Z,34.00
2019-01-15T09:19:01.988Z,32.10
2019-01-15T09:20:01.967Z,32.50
2019-01-15T09:21:01.984Z,34.00
2019-01-15T09:22:02.013Z,29.90
2019-01-15T09:23:01.934Z,29.50
2019-01-15T09:24:01.916Z,31.70
2019-01-15T09:25:01.895Z,29.60
2019-01-15T09:26:01.883Z,30.20
2019-01-15T09:27:01.875Z,33.10
2019-01-15T09:28:01.849Z,32.00
2019-01-15T09:29:01.783Z,31.90
2019-01-15T09:30:01.759Z,36.70
2019-01-15T09:31:01.735Z,32.00
2019-01-15T09:32:01.729Z,31.10
2019-01-15T09:33:01.702Z,34.00
2019-01-15T09:34:01.670Z,32.80
2019-01-15T09:35:01.645Z,31.10
2019-01-15T09:36:01.621Z,31.50
2019-01-15T09:37:01.602Z,33.40
2019-01-15T09:38:01.605Z,30.90
2019-01-15T09:39:01.557Z,29.90
2019-01-15T09:40:01.538Z,32.00
2019-01-15T09:41:01.516Z,32.90
2019-01-15T09:42:01.494Z,29.70
2019-01-15T09:43:01.479Z,28.60
2019-01-15T09:44:01.469Z,30.30
2019-01-15T09:45:01.439Z,29.90
2019-01-15T09:46:01.416Z,27.30
2019-01-15T09:47:01.397Z,27.90
2019-01-15T09:48:01.371Z,28.00
2019-01-15T09:49:03.042Z,26.10
2019-01-15T09:50:01.328Z,29.20
2019-01-15T09:51:01.315Z,28.10
2019-01-15T09:52:01.283Z,29.90
2019-01-15T09:53:01.272Z,29.40
2019-01-15T09:54:01.248Z,30.00
2019-01-15T09:55:01.256Z,28.20
2019-01-15T09:56:01.205Z,28.10
2019-01-15T09:57:01.180Z,29.90
2019-01-15T09:58:01.185Z,28.10
2019-01-15T09:59:01.143Z,29.00
2019-01-15T10:00:01.122Z,26.40
2019-01-15T10:01:01.133Z,26.60
2019-01-15T10:02:01.083Z,24.60
2019-01-15T10:03:01.063Z,25.70
2019-01-15T10:04:01.041Z,25.00
2019-01-15T10:05:01.019Z,23.70
2019-01-15T10:06:01.023Z,24.30
2019-01-15T10:07:00.977Z,23.70
2019-01-15T10:08:00.957Z,23.80
2019-01-15T10:09:00.938Z,22.70
2019-01-15T10:10:00.921Z,21.50
2019-01-15T10:11:00.935Z,23.30
2019-01-15T10:12:00.874Z,23.30
2019-01-15T10:13:00.852Z,22.50
2019-01-15T10:14:00.886Z,21.90
2019-01-15T10:15:00.814Z,21.90
2019-01-15T10:16:00.801Z,23.30
2019-01-15T10:17:00.795Z,22.70
2019-01-15T10:18:00.782Z,21.50
2019-01-15T10:19:00.731Z,22.90
2019-01-15T10:20:00.711Z,23.00
2019-01-15T10:21:00.684Z,21.40
2019-01-15T10:22:00.670Z,23.20
2019-01-15T10:23:00.669Z,22.00
2019-01-15T10:24:00.635Z,21.60
2019-01-15T10:25:00.623Z,20.20
2019-01-15T10:26:00.583Z,19.30
2019-01-15T10:27:00.567Z,19.40
2019-01-15T10:28:00.548Z,21.20
2019-01-15T10:29:00.545Z,21.70
2019-01-15T10:30:00.505Z,20.70
2019-01-15T10:31:00.488Z,22.00
2019-01-15T10:32:00.462Z,21.70
2019-01-15T10:33:00.445Z,19.10
2019-01-15T10:34:00.422Z,19.30
2019-01-15T10:35:00.421Z,18.90
2019-01-15T10:36:00.385Z,17.50
2019-01-15T10:37:00.360Z,18.50
2019-01-15T10:38:00.341Z,18.60
2019-01-15T10:39:00.325Z,19.60
2019-01-15T10:40:00.297Z,19.70
2019-01-15T10:41:00.301Z,19.00
2019-01-15T10:42:00.269Z,18.50
2019-01-15T10:43:00.248Z,20.00
2019-01-15T10:44:00.248Z,20.90
2019-01-15T10:45:00.200Z,19.80
2019-01-15T10:46:00.186Z,15.70
2019-01-15T10:47:00.158Z,18.20
2019-01-15T10:48:00.145Z,17.00
2019-01-15T10:49:00.119Z,20.60
2019-01-15T10:50:00.245Z,16.90
2019-01-15T10:51:00.078Z,19.00
2019-01-15T10:52:00.072Z,18.30
2019-01-15T10:53:00.031Z,16.50
2019-01-15T10:54:00.029Z,15.90
2019-01-15T10:55:00.000Z,15.70
2019-01-15T10:55:59.992Z,17.20
2019-01-15T10:56:59.959Z,17.70
2019-01-15T10:57:59.940Z,17.40
2019-01-15T10:58:59.918Z,15.30
2019-01-15T10:59:59.896Z,17.30
2019-01-15T11:00:59.902Z,17.40
2019-01-15T11:01:59.859Z,14.50
2019-01-15T11:02:59.838Z,15.90
2019-01-15T11:03:59.835Z,16.00
2019-01-15T11:04:59.796Z,17.20
2019-01-15T11:05:59.780Z,15.60
2019-01-15T11:07:00.583Z,16.40
2019-01-15T11:07:59.739Z,16.20
2019-01-15T11:08:59.743Z,17.10
2019-01-15T11:09:59.695Z,15.50
2019-01-15T11:10:59.678Z,15.30
2019-01-15T11:11:59.660Z,16.30
2019-01-15T11:12:59.658Z,16.50
2019-01-15T11:13:59.615Z,13.80
2019-01-15T11:14:59.599Z,14.30
2019-01-15T11:15:59.583Z,15.40
2019-01-15T11:16:59.569Z,15.50
2019-01-15T11:17:59.539Z,15.60
2019-01-15T11:18:59.537Z,15.60
2019-01-15T11:19:59.498Z,12.50
2019-01-15T11:20:59.474Z,15.30
2019-01-15T11:21:59.457Z,15.80
2019-01-15T11:22:59.438Z,15.40
2019-01-15T11:23:59.434Z,11.30
2019-01-15T11:24:59.402Z,15.10
2019-01-15T11:25:59.403Z,14.60
2019-01-15T11:26:59.356Z,15.30
2019-01-15T11:27:59.348Z,13.80
2019-01-15T11:28:59.318Z,14.70
2019-01-15T11:29:59.303Z,12.20
2019-01-15T11:30:59.299Z,12.00
2019-01-15T11:31:59.262Z,11.30
2019-01-15T11:32:59.239Z,12.70
2019-01-15T11:33:59.233Z,12.60
2019-01-15T11:34:59.201Z,10.80
2019-01-15T11:35:59.190Z,12.10
2019-01-15T11:36:59.160Z,11.70
2019-01-15T11:37:59.152Z,15.60
2019-01-15T11:38:59.115Z,10.50
2019-01-15T11:39:59.119Z,12.80
2019-01-15T11:40:59.092Z,9.00
2019-01-15T11:41:59.057Z,10.70
2019-01-15T11:42:59.041Z,11.20
2019-01-15T11:43:59.016Z,11.60
2019-01-15T11:45:03.316Z,10.50
2019-01-15T11:45:58.999Z,12.70
2019-01-15T11:46:59.007Z,13.30
2019-01-15T11:47:58.932Z,9.60
2019-01-15T11:48:58.935Z,12.00
2019-01-15T11:49:58.897Z,10.60
2019-01-15T11:50:58.883Z,10.70
2019-01-15T11:51:58.855Z,12.30
2019-01-15T11:52:58.860Z,10.50
2019-01-15T11:53:58.817Z,10.50
2019-01-15T11:54:58.803Z,10.30
2019-01-15T11:55:58.774Z,10.40
2019-01-15T11:56:58.756Z,11.50
2019-01-15T11:57:58.746Z,8.60
2019-01-15T11:58:58.743Z,9.70
2019-01-15T11:59:58.701Z,7.20
2019-01-15T12:00:58.682Z,8.30
2019-01-15T12:01:58.677Z,7.70
2019-01-15T12:02:58.641Z,9.60
2019-01-15T12:03:58.616Z,10.20
2019-01-15T12:04:58.607Z,9.50
2019-01-15T12:05:58.578Z,10.00
2019-01-15T12:06:58.564Z,8.70
2019-01-15T12:07:58.554Z,10.50
2019-01-15T12:08:58.539Z,9.70
2019-01-15T12:09:58.497Z,8.50
2019-01-15T12:10:58.493Z,11.40
2019-01-15T12:11:58.458Z,9.60
2019-01-15T12:12:58.461Z,8.60
2019-01-15T12:13:58.426Z,8.30
2019-01-15T12:14:58.406Z,9.10
2019-01-15T12:15:58.405Z,8.60
2019-01-15T12:16:58.362Z,9.30
2019-01-15T12:17:58.345Z,10.50
2019-01-15T12:18:58.347Z,9.60
2019-01-15T12:19:58.299Z,9.90
2019-01-15T12:20:58.283Z,7.50
2019-01-15T12:21:58.284Z,9.50
2019-01-15T12:22:58.240Z,7.00
2019-01-15T12:23:58.217Z,8.60
2019-01-15T12:24:58.197Z,9.10
2019-01-15T12:25:58.184Z,8.80
2019-01-15T12:26:58.160Z,7.70
2019-01-15T12:27:58.166Z,8.20
2019-01-15T12:28:58.123Z,7.20
2019-01-15T12:29:58.121Z,8.20
2019-01-15T12:30:58.088Z,10.00
2019-01-15T12:31:58.063Z,7.80
2019-01-15T12:32:58.044Z,8.70
2019-01-15T12:33:58.023Z,9.00
2019-01-15T12:34:58.013Z,7.80
2019-01-15T12:35:57.996Z,8.80
2019-01-15T12:36:57.963Z,9.90
2019-01-15T12:37:57.953Z,11.30
2019-01-15T12:38:57.931Z,11.00
2019-01-15T12:39:57.915Z,10.80
2019-01-15T12:40:57.883Z,8.60
2019-01-15T12:41:57.873Z,8.60
2019-01-15T12:42:57.849Z,8.00
2019-01-15T12:43:57.843Z,10.20
2019-01-15T12:44:57.801Z,8.70
2019-01-15T12:45:57.789Z,8.30
2019-01-15T12:46:57.782Z,9.20
2019-01-15T12:47:57.741Z,9.90
2019-01-15T12:48:57.725Z,10.70
2019-01-15T12:49:57.704Z,8.60
2019-01-15T12:50:57.686Z,10.60
2019-01-15T12:51:57.683Z,9.50
2019-01-15T12:52:57.646Z,7.40
2019-01-15T12:53:57.626Z,8.30